createdAt,value
2018-11-10T00:00:06.178Z,19.98
2018-11-10T00:01:06.009Z,19.96
2018-11-10T00:02:06.165Z,19.96
2018-11-10T00:03:06.269Z,19.98
2018-11-10T00:04:06.682Z,19.95
2018-11-10T00:05:06.219Z,19.95
2018-11-10T00:06:06.100Z,19.96
2018-11-10T00:07:06.273Z,19.95
2018-11-10T00:08:06.736Z,19.93
2018-11-10T00:09:06.125Z,19.93
2018-11-10T00:10:06.364Z,19.92
2018-11-10T00:11:06.276Z,19.93
2018-11-10T00:12:05.974Z,19.93
2018-11-10T00:13:06.223Z,19.92
2018-11-10T00:14:05.992Z,19.91
2018-11-10T00:15:06.270Z,19.92
2018-11-10T00:16:06.252Z,19.92
2018-11-10T00:17:06.293Z,19.92
2018-11-10T00:18:06.198Z,19.92
2018-11-10T00:19:06.008Z,19.91
2018-11-10T00:20:06.161Z,19.89
2018-11-10T00:21:06.050Z,19.91
2018-11-10T00:22:06.079Z,19.91
2018-11-10T00:23:05.981Z,19.89
2018-11-10T00:24:06.237Z,19.86
2018-11-10T00:25:06.231Z,19.86
2018-11-10T00:26:06.092Z,19.88
2018-11-10T00:27:06.222Z,19.88
2018-11-10T00:28:07.114Z,19.88
2018-11-10T00:29:06.608Z,19.88
2018-11-10T00:30:06.199Z,19.85
2018-11-10T00:31:06.313Z,19.85
2018-11-10T00:32:06.666Z,19.86
2018-11-10T00:33:06.155Z,19.85
2018-11-10T00:34:06.400Z,19.85
2018-11-10T00:35:06.149Z,19.82
2018-11-10T00:36:06.284Z,19.85
2018-11-10T00:37:05.919Z,19.86
2018-11-10T00:38:06.096Z,19.84
2018-11-10T00:39:06.057Z,19.84
2018-11-10T00:40:06.282Z,19.82
2018-11-10T00:41:06.193Z,19.85
2018-11-10T00:42:06.030Z,19.82
2018-11-10T00:43:06.226Z,19.81
2018-11-10T00:44:06.030Z,19.81
2018-11-10T00:45:06.225Z,19.81
2018-11-10T00:46:05.963Z,19.81
2018-11-10T00:47:06.148Z,19.82
2018-11-10T00:48:06.163Z,19.82
2018-11-10T00:49:06.063Z,19.8
2018-11-10T00:50:06.311Z,19.81
2018-11-10T00:51:06.117Z,19.8
2018-11-10T00:52:06.207Z,19.81
2018-11-10T00:53:06.251Z,19.8
2018-11-10T00:54:06.418Z,19.78
2018-11-10T00:55:06.071Z,19.8
2018-11-10T00:56:06.066Z,19.8
2018-11-10T00:57:06.205Z,19.78
2018-11-10T00:58:06.446Z,19.77
2018-11-10T00:59:06.170Z,19.78
2018-11-10T01:00:06.093Z,19.77
2018-11-10T01:01:06.149Z,19.77
2018-11-10T01:02:06.307Z,19.75
2018-11-10T01:03:06.165Z,19.75
2018-11-10T01:04:05.996Z,19.77
2018-11-10T01:05:06.069Z,19.75
2018-11-10T01:06:06.146Z,19.75
2018-11-10T01:07:06.064Z,19.75
2018-11-10T01:08:06.295Z,19.75
2018-11-10T01:09:05.924Z,19.74
2018-11-10T01:10:06.417Z,19.73
2018-11-10T01:11:06.213Z,19.71
2018-11-10T01:12:06.087Z,19.74
2018-11-10T01:13:06.012Z,19.74
2018-11-10T01:14:06.195Z,19.71
2018-11-10T01:15:06.304Z,19.74
2018-11-10T01:16:06.108Z,19.73
2018-11-10T01:17:06.219Z,19.73
2018-11-10T01:18:06.056Z,19.71
2018-11-10T01:19:06.256Z,19.7
2018-11-10T01:20:06.670Z,19.71
2018-11-10T01:21:06.237Z,19.7
2018-11-10T01:22:06.062Z,19.7
2018-11-10T01:23:05.977Z,19.7
2018-11-10T01:24:06.190Z,19.71
2018-11-10T01:25:06.634Z,19.73
2018-11-10T01:26:06.061Z,19.71
2018-11-10T01:27:06.100Z,19.7
2018-11-10T01:28:06.457Z,19.68
2018-11-10T01:29:06.251Z,19.7
2018-11-10T01:30:06.144Z,19.7
2018-11-10T01:31:05.946Z,19.68
2018-11-10T01:32:05.995Z,19.71
2018-11-10T01:33:06.402Z,19.68
2018-11-10T01:34:06.035Z,19.68
2018-11-10T01:35:06.245Z,19.68
2018-11-10T01:36:05.892Z,19.65
2018-11-10T01:37:06.368Z,19.67
2018-11-10T01:38:06.253Z,19.67
2018-11-10T01:39:06.041Z,19.7
2018-11-10T01:40:05.886Z,19.67
2018-11-10T01:41:06.222Z,19.63
2018-11-10T01:42:06.341Z,19.64
2018-11-10T01:43:05.982Z,19.67
2018-11-10T01:44:05.992Z,19.63
2018-11-10T01:45:06.349Z,19.63
2018-11-10T01:46:06.124Z,19.64
2018-11-10T01:47:06.208Z,19.64
2018-11-10T01:48:06.270Z,19.61
2018-11-10T01:49:05.985Z,19.64
2018-11-10T01:50:05.986Z,19.64
2018-11-10T01:51:06.029Z,19.64
2018-11-10T01:52:06.190Z,19.63
2018-11-10T01:53:06.341Z,19.64
2018-11-10T01:54:06.098Z,19.64
2018-11-10T01:55:05.934Z,19.65
2018-11-10T01:56:06.158Z,19.65
2018-11-10T01:57:05.938Z,19.63
2018-11-10T01:58:07.411Z,19.61
2018-11-10T01:59:06.062Z,19.64
2018-11-10T02:00:06.059Z,19.61
2018-11-10T02:01:06.305Z,19.58
2018-11-10T02:02:06.002Z,19.6
2018-11-10T02:03:06.381Z,19.61
2018-11-10T02:04:06.025Z,19.6
2018-11-10T02:05:06.213Z,19.6
2018-11-10T02:06:05.954Z,19.58
2018-11-10T02:07:06.248Z,19.56
2018-11-10T02:08:06.168Z,19.6
2018-11-10T02:09:05.984Z,19.57
2018-11-10T02:10:06.133Z,19.6
2018-11-10T02:11:06.145Z,19.58
2018-11-10T02:12:06.162Z,19.56
2018-11-10T02:13:06.084Z,19.57
2018-11-10T02:14:06.206Z,19.58
2018-11-10T02:15:06.044Z,19.57
2018-11-10T02:16:05.942Z,19.57
2018-11-10T02:17:06.337Z,19.56
2018-11-10T02:18:06.122Z,19.57
2018-11-10T02:19:06.092Z,19.54
2018-11-10T02:20:06.118Z,19.54
2018-11-10T02:21:06.232Z,19.56
2018-11-10T02:22:06.132Z,19.53
2018-11-10T02:23:06.408Z,19.57
2018-11-10T02:24:06.098Z,19.54
2018-11-10T02:25:06.067Z,19.54
2018-11-10T02:26:06.211Z,19.54
2018-11-10T02:27:06.118Z,19.53
2018-11-10T02:28:06.167Z,19.56
2018-11-10T02:29:06.128Z,19.56
2018-11-10T02:30:06.119Z,19.54
2018-11-10T02:31:05.919Z,19.53
2018-11-10T02:32:06.359Z,19.54
2018-11-10T02:33:06.100Z,19.52
2018-11-10T02:34:05.984Z,19.52
2018-11-10T02:35:06.298Z,19.53
2018-11-10T02:36:06.093Z,19.53
2018-11-10T02:37:06.775Z,19.53
2018-11-10T02:38:05.885Z,19.5
2018-11-10T02:39:06.308Z,19.53
2018-11-10T02:40:06.141Z,19.53
2018-11-10T02:41:06.080Z,19.53
2018-11-10T02:42:06.541Z,19.5
2018-11-10T02:43:06.271Z,19.52
2018-11-10T02:44:06.096Z,19.52
2018-11-10T02:45:06.272Z,19.5
2018-11-10T02:46:06.294Z,19.5
2018-11-10T02:47:06.433Z,19.5
2018-11-10T02:48:06.180Z,19.5
2018-11-10T02:49:05.865Z,19.49
2018-11-10T02:50:06.369Z,19.5
2018-11-10T02:51:06.409Z,19.49
2018-11-10T02:52:05.890Z,19.53
2018-11-10T02:53:06.076Z,19.52
2018-11-10T02:54:06.206Z,19.5
2018-11-10T02:55:06.307Z,19.5
2018-11-10T02:56:06.041Z,19.52
2018-11-10T02:57:06.296Z,19.5
2018-11-10T02:58:06.087Z,19.49
2018-11-10T02:59:05.983Z,19.49
2018-11-10T03:00:06.549Z,19.5
2018-11-10T03:01:07.627Z,19.49
2018-11-10T03:02:06.002Z,19.46
2018-11-10T03:03:06.313Z,19.5
2018-11-10T03:04:06.272Z,19.5
2018-11-10T03:05:06.155Z,19.47
2018-11-10T03:06:06.105Z,19.47
2018-11-10T03:07:06.133Z,19.45
2018-11-10T03:08:05.991Z,19.46
2018-11-10T03:09:06.059Z,19.45
2018-11-10T03:10:05.870Z,19.47
2018-11-10T03:11:06.048Z,19.46
2018-11-10T03:12:06.047Z,19.47
2018-11-10T03:13:05.944Z,19.43
2018-11-10T03:14:06.506Z,19.46
2018-11-10T03:15:06.018Z,19.45
2018-11-10T03:16:06.403Z,19.45
2018-11-10T03:17:06.133Z,19.45
2018-11-10T03:18:06.167Z,19.43
2018-11-10T03:19:06.419Z,19.47
2018-11-10T03:20:06.041Z,19.43
2018-11-10T03:21:06.112Z,19.46
2018-11-10T03:22:06.141Z,19.45
2018-11-10T03:23:06.096Z,19.46
2018-11-10T03:24:06.056Z,19.45
2018-11-10T03:25:06.095Z,19.43
2018-11-10T03:26:06.085Z,19.43
2018-11-10T03:27:06.081Z,19.43
2018-11-10T03:28:06.179Z,19.42
2018-11-10T03:29:06.109Z,19.42
2018-11-10T03:30:06.860Z,19.39
2018-11-10T03:31:05.982Z,19.42
2018-11-10T03:32:06.550Z,19.4
2018-11-10T03:33:06.031Z,19.43
2018-11-10T03:34:06.300Z,19.42
2018-11-10T03:35:05.979Z,19.43
2018-11-10T03:36:06.082Z,19.43
2018-11-10T03:37:06.229Z,19.4
2018-11-10T03:38:06.299Z,19.43
2018-11-10T03:39:06.231Z,19.42
2018-11-10T03:40:06.045Z,19.4
2018-11-10T03:41:06.151Z,19.4
2018-11-10T03:42:05.894Z,19.37
2018-11-10T03:43:06.322Z,19.39
2018-11-10T03:44:06.271Z,19.42
2018-11-10T03:45:06.111Z,19.42
2018-11-10T03:46:06.085Z,19.4
2018-11-10T03:47:05.958Z,19.42
2018-11-10T03:48:06.047Z,19.42
2018-11-10T03:49:05.907Z,19.42
2018-11-10T03:50:06.036Z,19.39
2018-11-10T03:51:06.253Z,19.37
2018-11-10T03:52:05.988Z,19.42
2018-11-10T03:53:06.173Z,19.4
2018-11-10T03:54:06.101Z,19.42
2018-11-10T03:55:05.880Z,19.37
2018-11-10T03:56:05.981Z,19.4
2018-11-10T03:57:06.003Z,19.39
2018-11-10T03:58:05.888Z,19.4
2018-11-10T03:59:05.969Z,19.39
2018-11-10T04:00:06.125Z,19.37
2018-11-10T04:01:05.969Z,19.39
2018-11-10T04:02:06.124Z,19.36
2018-11-10T04:03:06.061Z,19.39
2018-11-10T04:04:06.067Z,19.37
2018-11-10T04:05:05.837Z,19.37
2018-11-10T04:06:06.722Z,19.37
2018-11-10T04:07:06.255Z,19.39
2018-11-10T04:08:05.918Z,19.37
2018-11-10T04:09:06.261Z,19.37
2018-11-10T04:10:06.163Z,19.36
2018-11-10T04:11:05.993Z,19.35
2018-11-10T04:12:06.001Z,19.33
2018-11-10T04:13:06.219Z,19.37
2018-11-10T04:14:06.185Z,19.36
2018-11-10T04:15:06.307Z,19.33
2018-11-10T04:16:06.096Z,19.35
2018-11-10T04:17:06.094Z,19.35
2018-11-10T04:18:06.163Z,19.35
2018-11-10T04:19:06.116Z,19.36
2018-11-10T04:20:06.127Z,19.35
2018-11-10T04:21:06.491Z,19.35
2018-11-10T04:22:06.010Z,19.33
2018-11-10T04:23:06.042Z,19.33
2018-11-10T04:24:06.209Z,19.33
2018-11-10T04:25:06.088Z,19.35
2018-11-10T04:26:06.167Z,19.35
2018-11-10T04:27:06.131Z,19.33
2018-11-10T04:28:06.285Z,19.33
2018-11-10T04:29:06.060Z,19.33
2018-11-10T04:30:06.157Z,19.35
2018-11-10T04:31:05.826Z,19.33
2018-11-10T04:32:06.182Z,19.33
2018-11-10T04:33:05.866Z,19.32
2018-11-10T04:34:06.103Z,19.32
2018-11-10T04:35:06.153Z,19.33
2018-11-10T04:36:06.011Z,19.32
2018-11-10T04:37:06.450Z,19.3
2018-11-10T04:38:06.163Z,19.32
2018-11-10T04:39:06.363Z,19.32
2018-11-10T04:40:06.988Z,19.32
2018-11-10T04:41:06.141Z,19.3
2018-11-10T04:42:05.997Z,19.32
2018-11-10T04:43:05.977Z,19.3
2018-11-10T04:44:06.225Z,19.29
2018-11-10T04:45:06.061Z,19.29
2018-11-10T04:46:06.136Z,19.29
2018-11-10T04:47:05.912Z,19.29
2018-11-10T04:48:06.218Z,19.3
2018-11-10T04:49:06.029Z,19.29
2018-11-10T04:50:06.124Z,19.3
2018-11-10T04:51:05.909Z,19.32
2018-11-10T04:52:05.922Z,19.33
2018-11-10T04:53:06.048Z,19.33
2018-11-10T04:54:06.372Z,19.32
2018-11-10T04:55:05.970Z,19.35
2018-11-10T04:56:05.972Z,19.35
2018-11-10T04:57:06.042Z,19.35
2018-11-10T04:58:05.835Z,19.36
2018-11-10T04:59:05.907Z,19.36
2018-11-10T05:00:06.167Z,19.36
2018-11-10T05:01:06.007Z,19.36
2018-11-10T05:02:06.049Z,19.36
2018-11-10T05:03:05.921Z,19.4
2018-11-10T05:04:06.206Z,19.4
2018-11-10T05:05:05.819Z,19.39
2018-11-10T05:06:06.282Z,19.36
2018-11-10T05:07:06.033Z,19.39
2018-11-10T05:08:06.235Z,19.4
2018-11-10T05:09:05.984Z,19.37
2018-11-10T05:10:05.932Z,19.42
2018-11-10T05:11:06.100Z,19.4
2018-11-10T05:12:05.905Z,19.42
2018-11-10T05:13:06.003Z,19.46
2018-11-10T05:14:06.062Z,19.46
2018-11-10T05:15:06.010Z,19.46
2018-11-10T05:16:06.010Z,19.47
2018-11-10T05:17:06.224Z,19.5
2018-11-10T05:18:06.136Z,19.52
2018-11-10T05:19:06.031Z,19.53
2018-11-10T05:20:05.940Z,19.54
2018-11-10T05:21:06.186Z,19.57
2018-11-10T05:22:06.257Z,19.57
2018-11-10T05:23:06.079Z,19.6
2018-11-10T05:24:06.032Z,19.6
2018-11-10T05:25:06.077Z,19.64
2018-11-10T05:26:05.963Z,19.64
2018-11-10T05:27:06.106Z,19.65
2018-11-10T05:28:06.432Z,19.67
2018-11-10T05:29:06.025Z,19.67
2018-11-10T05:30:06.018Z,19.67
2018-11-10T05:31:07.208Z,19.7
2018-11-10T05:32:06.099Z,19.71
2018-11-10T05:33:06.194Z,19.71
2018-11-10T05:34:05.953Z,19.73
2018-11-10T05:35:06.152Z,19.75
2018-11-10T05:36:05.984Z,19.73
2018-11-10T05:37:06.208Z,19.78
2018-11-10T05:38:06.294Z,19.77
2018-11-10T05:39:06.137Z,19.78
2018-11-10T05:40:06.212Z,19.81
2018-11-10T05:41:05.988Z,19.81
2018-11-10T05:42:06.007Z,19.81
2018-11-10T05:43:05.973Z,19.82
2018-11-10T05:44:06.215Z,19.82
2018-11-10T05:45:06.121Z,19.85
2018-11-10T05:46:06.329Z,19.85
2018-11-10T05:47:06.210Z,19.86
2018-11-10T05:48:06.158Z,19.86
2018-11-10T05:49:06.005Z,19.89
2018-11-10T05:50:06.458Z,19.89
2018-11-10T05:51:05.880Z,19.91
2018-11-10T05:52:05.837Z,19.92
2018-11-10T05:53:06.092Z,19.92
2018-11-10T05:54:05.968Z,19.95
2018-11-10T05:55:06.270Z,19.96
2018-11-10T05:56:05.891Z,19.95
2018-11-10T05:57:07.252Z,19.98
2018-11-10T05:58:06.035Z,19.98
2018-11-10T05:59:05.988Z,19.99
2018-11-10T06:00:06.096Z,19.99
2018-11-10T06:01:06.148Z,19.99
2018-11-10T06:02:06.037Z,20.02
2018-11-10T06:03:07.064Z,20.01
2018-11-10T06:04:06.144Z,20.02
2018-11-10T06:05:05.992Z,20.01
2018-11-10T06:06:06.006Z,20.02
2018-11-10T06:07:06.175Z,20.02
2018-11-10T06:08:06.075Z,20.04
2018-11-10T06:09:06.894Z,20.05
2018-11-10T06:10:08.419Z,20.05
2018-11-10T06:11:05.893Z,20.07
2018-11-10T06:12:06.090Z,20.04
2018-11-10T06:13:05.888Z,20.08
2018-11-10T06:14:05.988Z,20.08
2018-11-10T06:15:05.900Z,20.09
2018-11-10T06:16:06.612Z,20.09
2018-11-10T06:17:06.047Z,20.09
2018-11-10T06:18:06.147Z,20.11
2018-11-10T06:19:05.774Z,20.12
2018-11-10T06:20:05.821Z,20.12
2018-11-10T06:21:05.989Z,20.16
2018-11-10T06:22:05.807Z,20.16
2018-11-10T06:23:06.146Z,20.15
2018-11-10T06:24:06.000Z,20.16
2018-11-10T06:25:06.001Z,20.15
2018-11-10T06:26:07.217Z,20.16
2018-11-10T06:27:05.965Z,20.16
2018-11-10T06:28:05.895Z,20.16
2018-11-10T06:29:06.237Z,20.16
2018-11-10T06:30:05.909Z,20.2
2018-11-10T06:31:06.156Z,20.19
2018-11-10T06:32:05.941Z,20.19
2018-11-10T06:33:06.165Z,20.18
2018-11-10T06:34:05.981Z,20.22
2018-11-10T06:35:06.074Z,20.2
2018-11-10T06:36:06.165Z,20.2
2018-11-10T06:37:05.807Z,20.22
2018-11-10T06:38:06.160Z,20.23
2018-11-10T06:39:05.992Z,20.22
2018-11-10T06:40:06.435Z,20.23
2018-11-10T06:41:06.137Z,20.23
2018-11-10T06:42:06.248Z,20.23
2018-11-10T06:43:06.040Z,20.25
2018-11-10T06:44:06.045Z,20.23
2018-11-10T06:45:05.959Z,20.25
2018-11-10T06:46:06.042Z,20.26
2018-11-10T06:47:06.915Z,20.23
2018-11-10T06:48:06.287Z,20.27
2018-11-10T06:49:06.024Z,20.26
2018-11-10T06:50:06.107Z,20.27
2018-11-10T06:51:05.952Z,20.26
2018-11-10T06:52:05.964Z,20.29
2018-11-10T06:53:07.208Z,20.3
2018-11-10T06:54:06.020Z,20.29
2018-11-10T06:55:06.062Z,20.32
2018-11-10T06:56:06.008Z,20.32
2018-11-10T06:57:06.283Z,20.32
2018-11-10T06:58:06.258Z,20.32
2018-11-10T06:59:06.020Z,20.3
2018-11-10T07:00:06.105Z,20.32
2018-11-10T07:01:05.848Z,20.33
2018-11-10T07:02:06.161Z,20.33
2018-11-10T07:03:06.043Z,20.35
2018-11-10T07:04:07.010Z,20.33
2018-11-10T07:05:06.154Z,20.33
2018-11-10T07:06:06.089Z,20.35
2018-11-10T07:07:06.005Z,20.33
2018-11-10T07:08:05.883Z,20.35
2018-11-10T07:09:05.891Z,20.39
2018-11-10T07:10:06.205Z,20.35
2018-11-10T07:11:05.860Z,20.35
2018-11-10T07:12:06.086Z,20.35
2018-11-10T07:13:05.986Z,20.36
2018-11-10T07:14:06.136Z,20.37
2018-11-10T07:15:05.894Z,20.36
2018-11-10T07:16:06.046Z,20.37
2018-11-10T07:17:05.731Z,20.36
2018-11-10T07:18:07.388Z,20.37
2018-11-10T07:19:05.997Z,20.36
2018-11-10T07:20:05.831Z,20.4
2018-11-10T07:21:06.129Z,20.37
2018-11-10T07:22:05.753Z,20.39
2018-11-10T07:23:06.099Z,20.39
2018-11-10T07:24:06.130Z,20.39
2018-11-10T07:25:07.151Z,20.37
2018-11-10T07:26:06.037Z,20.4
2018-11-10T07:27:05.778Z,20.39
2018-11-10T07:28:05.940Z,20.39
2018-11-10T07:29:06.364Z,20.37
2018-11-10T07:30:06.005Z,20.39
2018-11-10T07:31:05.721Z,20.4
2018-11-10T07:32:07.338Z,20.43
2018-11-10T07:33:05.923Z,20.37
2018-11-10T07:34:05.903Z,20.42
2018-11-10T07:35:05.902Z,20.4
2018-11-10T07:36:06.124Z,20.4
2018-11-10T07:37:06.087Z,20.39
2018-11-10T07:38:06.086Z,20.4
2018-11-10T07:39:05.918Z,20.42
2018-11-10T07:40:05.769Z,20.44
2018-11-10T07:41:05.914Z,20.43
2018-11-10T07:42:06.067Z,20.43
2018-11-10T07:43:07.350Z,20.44
2018-11-10T07:44:05.992Z,20.43
2018-11-10T07:45:06.346Z,20.44
2018-11-10T07:46:05.905Z,20.44
2018-11-10T07:47:06.161Z,20.46
2018-11-10T07:48:05.814Z,20.44
2018-11-10T07:49:06.013Z,20.46
2018-11-10T07:50:05.983Z,20.46
2018-11-10T07:51:06.057Z,20.47
2018-11-10T07:52:05.973Z,20.48
2018-11-10T07:53:05.833Z,20.48
2018-11-10T07:54:05.958Z,20.48
2018-11-10T07:55:05.971Z,20.5
2018-11-10T07:56:06.264Z,20.47
2018-11-10T07:57:05.815Z,20.51
2018-11-10T07:58:05.790Z,20.48
2018-11-10T07:59:06.177Z,20.51
2018-11-10T08:00:05.880Z,20.51
2018-11-10T08:01:05.978Z,20.53
2018-11-10T08:02:05.799Z,20.51
2018-11-10T08:03:06.010Z,20.54
2018-11-10T08:04:06.237Z,20.54
2018-11-10T08:05:05.959Z,20.53
2018-11-10T08:06:06.238Z,20.54
2018-11-10T08:07:05.745Z,20.51
2018-11-10T08:08:06.494Z,20.57
2018-11-10T08:09:06.016Z,20.57
2018-11-10T08:10:05.943Z,20.55
2018-11-10T08:11:06.330Z,20.55
2018-11-10T08:12:06.264Z,20.54
2018-11-10T08:13:06.488Z,20.53
2018-11-10T08:14:05.851Z,20.54
2018-11-10T08:15:05.955Z,20.55
2018-11-10T08:16:05.975Z,20.55
2018-11-10T08:17:06.047Z,20.57
2018-11-10T08:18:05.871Z,20.55
2018-11-10T08:19:06.183Z,20.57
2018-11-10T08:20:05.893Z,20.57
2018-11-10T08:21:06.093Z,20.55
2018-11-10T08:22:06.326Z,20.59
2018-11-10T08:23:05.920Z,20.59
2018-11-10T08:24:06.021Z,20.54
2018-11-10T08:25:08.000Z,20.57
2018-11-10T08:26:06.039Z,20.6
2018-11-10T08:27:05.924Z,20.6
2018-11-10T08:28:06.333Z,20.61
2018-11-10T08:29:06.102Z,20.6
2018-11-10T08:30:05.800Z,20.6
2018-11-10T08:31:07.379Z,20.61
2018-11-10T08:32:06.398Z,20.61
2018-11-10T08:33:06.206Z,20.63
2018-11-10T08:34:06.038Z,20.63
2018-11-10T08:35:05.963Z,20.64
2018-11-10T08:36:06.094Z,20.66
2018-11-10T08:37:06.135Z,20.64
2018-11-10T08:38:06.224Z,20.61
2018-11-10T08:39:06.391Z,20.64
2018-11-10T08:40:06.005Z,20.6
2018-11-10T08:41:06.447Z,20.6
2018-11-10T08:42:05.907Z,20.57
2018-11-10T08:43:05.757Z,20.54
2018-11-10T08:44:06.065Z,20.54
2018-11-10T08:45:05.940Z,20.53
2018-11-10T08:46:05.998Z,20.53
2018-11-10T08:47:06.008Z,20.55
2018-11-10T08:48:05.711Z,20.57
2018-11-10T08:49:06.586Z,20.57
2018-11-10T08:50:06.087Z,20.55
2018-11-10T08:51:06.129Z,20.55
2018-11-10T08:52:06.066Z,20.59
2018-11-10T08:53:06.036Z,20.59
2018-11-10T08:54:06.083Z,20.59
2018-11-10T08:55:05.832Z,20.59
2018-11-10T08:56:06.132Z,20.59
2018-11-10T08:57:05.857Z,20.6
2018-11-10T08:58:06.234Z,20.6
2018-11-10T08:59:07.392Z,20.61
2018-11-10T09:00:06.317Z,20.63
2018-11-10T09:01:05.918Z,20.66
2018-11-10T09:02:05.798Z,20.63
2018-11-10T09:03:05.920Z,20.64
2018-11-10T09:04:05.865Z,20.66
2018-11-10T09:05:06.692Z,20.67
2018-11-10T09:06:06.087Z,20.67
2018-11-10T09:07:05.907Z,20.68
2018-11-10T09:08:06.149Z,20.66
2018-11-10T09:09:05.902Z,20.67
2018-11-10T09:10:06.036Z,20.67
2018-11-10T09:11:05.938Z,20.67
2018-11-10T09:12:06.116Z,20.7
2018-11-10T09:13:06.147Z,20.68
2018-11-10T09:14:06.068Z,20.67
2018-11-10T09:15:07.279Z,20.71
2018-11-10T09:16:05.786Z,20.68
2018-11-10T09:17:05.979Z,20.68
2018-11-10T09:18:05.968Z,20.74
2018-11-10T09:19:05.741Z,20.71
2018-11-10T09:20:05.724Z,20.68
2018-11-10T09:21:07.346Z,20.72
2018-11-10T09:22:06.065Z,20.72
2018-11-10T09:23:05.990Z,20.72
2018-11-10T09:24:06.011Z,20.74
2018-11-10T09:25:05.755Z,20.75
2018-11-10T09:26:06.335Z,20.77
2018-11-10T09:27:05.847Z,20.78
2018-11-10T09:28:05.993Z,20.77
2018-11-10T09:29:06.094Z,20.78
2018-11-10T09:30:05.818Z,20.77
2018-11-10T09:31:06.545Z,20.77
2018-11-10T09:32:06.220Z,20.77
2018-11-10T09:33:05.769Z,20.78
2018-11-10T09:34:06.052Z,20.8
2018-11-10T09:35:05.824Z,20.8
2018-11-10T09:36:05.919Z,20.78
2018-11-10T09:37:05.904Z,20.78
2018-11-10T09:38:05.964Z,20.8
2018-11-10T09:39:05.878Z,20.82
2018-11-10T09:40:06.037Z,20.8
2018-11-10T09:41:05.796Z,20.8
2018-11-10T09:42:07.477Z,20.82
2018-11-10T09:43:06.130Z,20.84
2018-11-10T09:44:05.984Z,20.82
2018-11-10T09:44:47.969Z,20.87
2018-11-10T09:45:48.056Z,20.89
2018-11-10T09:46:48.092Z,20.92
2018-11-10T09:47:48.516Z,20.95
2018-11-10T09:48:48.317Z,20.92
2018-11-10T09:49:48.498Z,20.91
2018-11-10T09:50:48.988Z,20.92
2018-11-10T09:51:48.256Z,20.95
2018-11-10T09:52:48.098Z,20.95
2018-11-10T09:53:48.006Z,20.94
2018-11-10T09:54:48.231Z,20.94
2018-11-10T09:55:48.156Z,20.89
2018-11-10T09:56:48.199Z,20.88
2018-11-10T09:57:48.050Z,20.89
2018-11-10T09:58:48.152Z,20.88
2018-11-10T09:59:48.127Z,20.89
2018-11-10T10:00:48.224Z,20.85
2018-11-10T10:01:52.168Z,20.81
2018-11-10T10:02:52.769Z,20.81
2018-11-10T10:03:47.971Z,20.78
2018-11-10T10:04:48.324Z,20.78
2018-11-10T10:05:48.317Z,20.81
2018-11-10T10:06:48.035Z,20.8
2018-11-10T10:07:48.127Z,20.78
2018-11-10T10:08:48.426Z,20.77
2018-11-10T10:09:48.464Z,20.8
2018-11-10T10:10:48.329Z,20.75
2018-11-10T10:11:48.176Z,20.77
2018-11-10T10:12:48.051Z,20.74
2018-11-10T10:13:48.212Z,20.74
2018-11-10T10:14:48.400Z,20.75
2018-11-10T10:15:48.173Z,20.7
2018-11-10T10:16:49.589Z,20.72
2018-11-10T10:17:48.096Z,20.72
2018-11-10T10:18:48.228Z,20.7
2018-11-10T10:19:47.988Z,20.7
2018-11-10T10:20:48.298Z,20.68
2018-11-10T10:21:49.279Z,20.67
2018-11-10T10:22:48.016Z,20.64
2018-11-10T10:23:48.189Z,20.63
2018-11-10T10:24:48.245Z,20.63
2018-11-10T10:25:48.112Z,20.68
2018-11-10T10:26:48.519Z,20.71
2018-11-10T10:27:48.016Z,20.78
2018-11-10T10:28:49.098Z,20.78
2018-11-10T10:29:48.301Z,20.81
2018-11-10T10:30:48.077Z,20.84
2018-11-10T10:31:48.169Z,20.84
2018-11-10T10:32:48.132Z,20.87
2018-11-10T10:34:06.581Z,20.87
2018-11-10T10:35:07.421Z,20.87
2018-11-10T10:36:05.401Z,20.85
2018-11-10T10:36:56.292Z,20.84
2018-11-10T10:37:56.757Z,20.82
2018-11-10T10:38:56.329Z,20.85
2018-11-10T10:40:15.024Z,20.87
2018-11-10T10:41:14.914Z,20.85
2018-11-10T10:42:14.737Z,20.84
2018-11-10T10:43:14.899Z,20.87
2018-11-10T10:44:15.028Z,20.82
2018-11-10T10:45:14.837Z,20.84
2018-11-10T10:46:14.947Z,20.81
2018-11-10T10:46:46.223Z,20.88
2018-11-10T10:47:45.943Z,20.89
2018-11-10T10:48:47.872Z,20.91
2018-11-10T10:49:46.156Z,20.91
2018-11-10T10:50:45.976Z,20.91
2018-11-10T10:51:45.957Z,20.88
2018-11-10T10:52:45.839Z,20.88
2018-11-10T10:53:45.919Z,20.85
2018-11-10T10:54:46.009Z,20.85
2018-11-10T10:55:46.419Z,20.81
2018-11-10T10:56:46.335Z,20.8
2018-11-10T10:57:45.810Z,20.8
2018-11-10T10:58:45.938Z,20.77
2018-11-10T10:59:45.859Z,20.77
2018-11-10T11:00:45.919Z,20.72
2018-11-10T11:01:46.252Z,20.72
2018-11-10T11:02:46.202Z,20.71
2018-11-10T11:03:46.077Z,20.68
2018-11-10T11:04:45.839Z,20.68
2018-11-10T11:05:45.974Z,20.67
2018-11-10T11:06:45.929Z,20.63
2018-11-10T11:07:45.909Z,20.63
2018-11-10T11:08:46.248Z,20.61
2018-11-10T11:09:47.480Z,20.6
2018-11-10T11:10:46.063Z,20.61
2018-11-10T11:11:45.820Z,20.59
2018-11-10T11:12:45.945Z,20.57
2018-11-10T11:13:46.037Z,20.54
2018-11-10T11:14:46.395Z,20.55
2018-11-10T11:15:47.228Z,20.51
2018-11-10T11:16:45.960Z,20.53
2018-11-10T11:17:46.050Z,20.55
2018-11-10T11:18:45.924Z,20.54
2018-11-10T11:19:46.720Z,20.53
2018-11-10T11:20:46.542Z,20.53
2018-11-10T11:21:50.103Z,20.53
2018-11-10T11:22:51.691Z,20.53
2018-11-10T11:23:45.807Z,20.5
2018-11-10T11:24:46.260Z,20.5
2018-11-10T11:25:46.251Z,20.53
2018-11-10T11:26:45.979Z,20.51
2018-11-10T11:27:46.050Z,20.5
2018-11-10T11:28:45.860Z,20.5
2018-11-10T11:29:47.612Z,20.51
2018-11-10T11:30:45.964Z,20.53
2018-11-10T11:31:46.022Z,20.5
2018-11-10T11:32:46.358Z,20.5
2018-11-10T11:33:46.883Z,20.51
2018-11-10T11:34:46.015Z,20.48
2018-11-10T11:35:45.945Z,20.51
2018-11-10T11:36:46.010Z,20.51
2018-11-10T11:37:45.841Z,20.48
2018-11-10T11:38:45.807Z,20.48
2018-11-10T11:39:46.038Z,20.46
2018-11-10T11:40:46.186Z,20.44
2018-11-10T11:41:47.628Z,20.47
2018-11-10T11:42:45.948Z,20.44
2018-11-10T11:43:46.067Z,20.43
2018-11-10T11:44:45.856Z,20.44
2018-11-10T11:45:45.965Z,20.44
2018-11-10T11:46:45.884Z,20.4
2018-11-10T11:47:46.078Z,20.43
2018-11-10T11:48:45.971Z,20.43
2018-11-10T11:49:46.729Z,20.43
2018-11-10T11:50:46.125Z,20.44
2018-11-10T11:51:45.846Z,20.44
2018-11-10T11:52:45.996Z,20.44
2018-11-10T11:53:46.016Z,20.44
2018-11-10T11:54:46.020Z,20.4
2018-11-10T11:55:46.089Z,20.42
2018-11-10T11:56:45.724Z,20.42
2018-11-10T11:57:47.271Z,20.42
2018-11-10T11:58:46.029Z,20.43
2018-11-10T11:59:46.360Z,20.42
2018-11-10T12:00:46.288Z,20.4
2018-11-10T12:01:45.925Z,20.4
2018-11-10T12:02:46.065Z,20.42
2018-11-10T12:03:45.938Z,20.4
2018-11-10T12:04:46.105Z,20.4
2018-11-10T12:05:46.382Z,20.39
2018-11-10T12:06:45.898Z,20.42
2018-11-10T12:07:46.385Z,20.39
2018-11-10T12:08:46.016Z,20.39
2018-11-10T12:09:45.966Z,20.42
2018-11-10T12:10:45.852Z,20.42
2018-11-10T12:11:46.306Z,20.42
2018-11-10T12:12:45.919Z,20.42
2018-11-10T12:13:46.024Z,20.42
2018-11-10T12:14:46.067Z,20.43
2018-11-10T12:15:45.905Z,20.42
2018-11-10T12:16:46.941Z,20.4
2018-11-10T12:17:45.890Z,20.39
2018-11-10T12:18:46.338Z,20.4
2018-11-10T12:19:46.357Z,20.39
2018-11-10T12:20:47.675Z,20.4
2018-11-10T12:21:46.484Z,20.4
2018-11-10T12:22:45.884Z,20.37
2018-11-10T12:23:46.243Z,20.39
2018-11-10T12:24:45.764Z,20.37
2018-11-10T12:25:45.946Z,20.36
2018-11-10T12:26:46.605Z,20.37
2018-11-10T12:27:45.941Z,20.37
2018-11-10T12:28:45.755Z,20.36
2018-11-10T12:29:46.017Z,20.37
2018-11-10T12:30:45.962Z,20.37
2018-11-10T12:31:47.242Z,20.35
2018-11-10T12:32:45.936Z,20.36
2018-11-10T12:33:46.286Z,20.35
2018-11-10T12:34:45.934Z,20.33
2018-11-10T12:35:45.900Z,20.35
2018-11-10T12:36:45.781Z,20.33
2018-11-10T12:37:46.083Z,20.35
2018-11-10T12:38:46.660Z,20.33
2018-11-10T12:39:46.160Z,20.33
2018-11-10T12:40:45.874Z,20.32
2018-11-10T12:41:46.512Z,20.33
2018-11-10T12:42:45.783Z,20.33
2018-11-10T12:43:45.935Z,20.32
2018-11-10T12:44:45.862Z,20.3
2018-11-10T12:45:45.773Z,20.27
2018-11-10T12:46:46.571Z,20.29
2018-11-10T12:47:45.898Z,20.3
2018-11-10T12:48:46.072Z,20.29
2018-11-10T12:49:45.842Z,20.3
2018-11-10T12:50:45.941Z,20.29
2018-11-10T12:51:45.817Z,20.27
2018-11-10T12:52:46.283Z,20.29
2018-11-10T12:53:45.771Z,20.29
2018-11-10T12:54:46.260Z,20.29
2018-11-10T12:55:46.089Z,20.29